createdAt,value
2018-02-09T00:02:19.903Z,130.90
2018-02-09T00:04:48.246Z,130.30
2018-02-09T00:07:17.352Z,124.47
2018-02-09T00:09:46.519Z,121.15
2018-02-09T00:12:14.845Z,124.12
2018-02-09T00:14:43.168Z,122.90
2018-02-09T00:17:12.369Z,120.28
2018-02-09T00:19:41.490Z,130.37
2018-02-09T00:22:09.839Z,136.32
2018-02-09T00:24:38.210Z,134.87
2018-02-09T00:27:06.524Z,128.43
2018-02-09T00:29:35.731Z,119.47
2018-02-09T00:32:04.834Z,125.60
2018-02-09T00:34:33.195Z,114.50
2018-02-09T00:37:01.504Z,127.45
2018-02-09T00:39:30.593Z,115.62
2018-02-09T00:41:59.666Z,118.93
2018-02-09T00:44:28.014Z,128.23
2018-02-09T00:46:56.343Z,130.75
2018-02-09T00:49:25.505Z,127.80
2018-02-09T00:51:53.853Z,126.03
2018-02-09T00:54:22.948Z,113.90
2018-02-09T00:56:52.257Z,120.45
2018-02-09T00:59:21.356Z,128.38
2018-02-09T01:01:50.506Z,124.53
2018-02-09T01:04:18.925Z,120.68
2018-02-09T01:06:48.047Z,133.80
2018-02-09T01:09:16.390Z,131.93
2018-02-09T01:11:44.691Z,144.95
2018-02-09T01:14:13.064Z,126.43
2018-02-09T01:16:41.391Z,143.18
2018-02-09T01:19:09.723Z,121.65
2018-02-09T01:21:38.978Z,112.78
2018-02-09T01:24:07.361Z,128.30
2018-02-09T01:26:35.693Z,121.90
2018-02-09T01:29:04.076Z,126.50
2018-02-09T01:31:33.177Z,134.30
2018-02-09T01:34:01.501Z,120.45
2018-02-09T01:36:29.857Z,123.30
2018-02-09T01:38:58.958Z,120.78
2018-02-09T01:41:28.059Z,134.25
2018-02-09T01:43:57.201Z,135.50
2018-02-09T01:46:25.528Z,128.98
2018-02-09T01:48:54.642Z,135.80
2018-02-09T01:51:23.729Z,140.55
2018-02-09T01:53:52.889Z,145.68
2018-02-09T01:56:21.230Z,138.48
2018-02-09T01:58:49.605Z,136.00
2018-02-09T02:01:18.736Z,121.75
2018-02-09T02:03:47.093Z,139.70
2018-02-09T02:06:15.566Z,131.35
2018-02-09T02:08:43.939Z,136.80
2018-02-09T02:11:12.323Z,135.95
2018-02-09T02:13:41.423Z,153.38
2018-02-09T02:16:09.828Z,145.12
2018-02-09T02:18:38.195Z,135.02
2018-02-09T02:21:07.304Z,128.43
2018-02-09T02:23:36.400Z,133.00
2018-02-09T02:26:05.590Z,128.95
2018-02-09T02:28:33.949Z,125.53
2018-02-09T02:31:02.393Z,127.62
2018-02-09T02:33:30.760Z,130.00
2018-02-09T02:35:59.124Z,120.57
2018-02-09T02:38:27.465Z,123.93
2018-02-09T02:40:55.830Z,129.75
2018-02-09T02:43:24.206Z,115.32
2018-02-09T02:45:52.538Z,134.80
2018-02-09T02:48:22.476Z,127.10
2018-02-09T02:50:51.396Z,132.20
2018-02-09T02:53:21.093Z,128.23
2018-02-09T02:55:52.210Z,126.20
2018-02-09T02:58:20.676Z,123.15
2018-02-09T03:00:49.683Z,128.40
2018-02-09T03:03:18.101Z,122.35
2018-02-09T03:05:47.838Z,130.90
2018-02-09T03:08:16.319Z,137.02
2018-02-09T03:10:45.143Z,122.05
2018-02-09T03:13:13.809Z,132.87
2018-02-09T03:15:47.081Z,138.82
2018-02-09T03:18:16.347Z,120.07
2018-02-09T03:20:44.832Z,112.72
2018-02-09T03:23:13.969Z,125.93
2018-02-09T03:25:42.356Z,112.55
2018-02-09T03:28:11.067Z,131.05
2018-02-09T03:30:39.739Z,127.93
2018-02-09T03:33:08.336Z,131.15
2018-02-09T03:35:36.867Z,136.90
2018-02-09T03:38:05.293Z,140.73
2018-02-09T03:40:33.723Z,130.40
2018-02-09T03:43:02.456Z,137.80
2018-02-09T03:45:31.591Z,136.90
2018-02-09T03:48:00.054Z,133.80
2018-02-09T03:50:29.454Z,141.00
2018-02-09T03:52:58.581Z,140.75
2018-02-09T03:55:27.094Z,142.30
2018-02-09T03:57:56.256Z,135.37
2018-02-09T04:00:25.353Z,142.00
2018-02-09T04:02:53.877Z,128.30
2018-02-09T04:05:24.946Z,134.68
2018-02-09T04:07:54.114Z,124.03
2018-02-09T04:10:23.227Z,140.65
2018-02-09T04:12:51.699Z,124.15
2018-02-09T04:15:20.065Z,127.38
2018-02-09T04:17:48.457Z,134.45
2018-02-09T04:20:16.857Z,131.63
2018-02-09T04:22:45.205Z,138.45
2018-02-09T04:25:14.504Z,149.25
2018-02-09T04:27:42.867Z,152.95
2018-02-09T04:30:12.808Z,121.13
2018-02-09T04:32:41.482Z,124.95
2018-02-09T04:35:09.904Z,118.60
2018-02-09T04:37:39.172Z,147.30
2018-02-09T04:40:08.020Z,134.68
2018-02-09T04:42:36.913Z,144.73
2018-02-09T04:45:05.437Z,145.25
2018-02-09T04:47:34.927Z,124.32
2018-02-09T04:50:04.422Z,130.32
2018-02-09T04:52:33.052Z,135.93
2018-02-09T04:55:01.784Z,140.02
2018-02-09T04:57:30.599Z,120.13
2018-02-09T04:59:59.342Z,134.15
2018-02-09T05:02:27.998Z,118.30
2018-02-09T05:04:56.551Z,126.60
2018-02-09T05:07:25.147Z,142.05
2018-02-09T05:09:53.661Z,124.00
2018-02-09T05:12:21.993Z,134.30
2018-02-09T05:14:50.388Z,132.52
2018-02-09T05:17:18.720Z,126.55
2018-02-09T05:19:47.908Z,123.30
2018-02-09T05:22:16.266Z,137.23
2018-02-09T05:24:45.375Z,127.78
2018-02-09T05:27:13.699Z,147.18
2018-02-09T05:29:42.190Z,130.37
2018-02-09T05:32:10.595Z,136.82
2018-02-09T05:34:38.926Z,130.65
2018-02-09T05:37:07.265Z,130.68
2018-02-09T05:39:35.667Z,135.90
2018-02-09T05:42:04.039Z,130.30
2018-02-09T05:44:32.391Z,126.50
2018-02-09T05:47:01.533Z,135.18
2018-02-09T05:49:29.995Z,125.62
2018-02-09T05:51:58.332Z,127.45
2018-02-09T05:54:26.698Z,125.62
2018-02-09T05:56:55.119Z,129.60
2018-02-09T05:59:23.549Z,131.27
2018-02-09T06:01:52.028Z,134.57
2018-02-09T06:04:20.382Z,136.70
2018-02-09T06:06:49.469Z,137.55
2018-02-09T06:09:17.787Z,127.95
2018-02-09T06:11:46.149Z,123.78
2018-02-09T06:14:15.243Z,121.72
2018-02-09T06:16:43.617Z,118.13
2018-02-09T06:19:12.704Z,134.40
2018-02-09T06:21:41.265Z,131.25
2018-02-09T06:24:09.610Z,138.65
2018-02-09T06:26:37.978Z,138.90
2018-02-09T06:29:06.317Z,132.45
2018-02-09T06:31:34.650Z,136.02
2018-02-09T06:34:03.052Z,116.12
2018-02-09T06:36:31.453Z,122.90
2018-02-09T06:38:59.793Z,125.15
2018-02-09T06:41:28.178Z,103.35
2018-02-09T06:43:57.604Z,106.12
2018-02-09T06:46:26.691Z,108.22
2018-02-09T06:48:55.796Z,110.40
2018-02-09T06:51:24.900Z,104.82
2018-02-09T06:53:53.227Z,120.35
2018-02-09T06:56:21.578Z,101.38
2018-02-09T06:58:49.884Z,110.00
2018-02-09T07:01:18.250Z,107.93
2018-02-09T07:03:47.344Z,105.65
2018-02-09T07:06:15.693Z,101.57
2018-02-09T07:08:44.017Z,105.78
2018-02-09T07:11:12.351Z,117.13
2018-02-09T07:13:40.706Z,125.68
2018-02-09T07:16:09.121Z,114.35
2018-02-09T07:18:38.176Z,108.65
2018-02-09T07:21:06.516Z,111.43
2018-02-09T07:23:34.876Z,121.85
2018-02-09T07:26:04.016Z,97.12
2018-02-09T07:28:32.355Z,115.53
2018-02-09T07:31:00.668Z,115.88
2018-02-09T07:33:30.435Z,106.32
2018-02-09T07:35:58.768Z,101.75
2018-02-09T07:38:27.907Z,104.65
2018-02-09T07:40:56.286Z,104.85
2018-02-09T07:43:24.626Z,106.25
2018-02-09T07:45:53.721Z,104.28
2018-02-09T07:48:22.879Z,102.10
2018-02-09T07:50:51.207Z,99.90
2018-02-09T07:53:20.304Z,92.80
2018-02-09T07:55:49.400Z,91.50
2018-02-09T07:58:17.725Z,111.82
2018-02-09T08:00:46.310Z,98.45
2018-02-09T08:03:14.650Z,94.15
2018-02-09T08:05:43.757Z,100.40
2018-02-09T08:08:12.863Z,98.95
2018-02-09T08:10:41.205Z,85.47
2018-02-09T08:13:09.542Z,91.47
2018-02-09T08:15:37.895Z,102.85
2018-02-09T08:18:06.216Z,95.85
2018-02-09T08:20:34.565Z,99.15
2018-02-09T08:23:03.665Z,87.12
2018-02-09T08:25:32.011Z,83.35
2018-02-09T08:28:00.348Z,86.95
2018-02-09T08:30:29.225Z,86.90
2018-02-09T08:32:58.338Z,89.80
2018-02-09T08:35:26.678Z,86.93
2018-02-09T08:37:55.009Z,82.57
2018-02-09T08:40:23.332Z,98.37
2018-02-09T08:42:51.675Z,83.20
2018-02-09T08:45:20.016Z,81.12
2018-02-09T08:47:48.339Z,79.18
2018-02-09T08:50:16.669Z,89.40
2018-02-09T08:52:45.085Z,92.45
2018-02-09T08:55:14.153Z,91.30
2018-02-09T08:57:42.497Z,82.00
2018-02-09T09:00:10.819Z,84.28
2018-02-09T09:02:39.137Z,85.38
2018-02-09T09:05:07.502Z,92.43
2018-02-09T09:07:36.059Z,87.68
2018-02-09T09:10:04.423Z,87.35
2018-02-09T09:12:37.844Z,97.93
2018-02-09T09:15:06.182Z,89.18
2018-02-09T09:17:34.529Z,89.82
2018-02-09T09:20:02.881Z,85.12
2018-02-09T09:22:31.233Z,90.72
2018-02-09T09:24:59.754Z,95.03
2018-02-09T09:27:28.098Z,90.93
2018-02-09T10:04:49.698Z,79.07
2018-02-09T10:07:18.790Z,89.70
2018-02-09T10:09:47.131Z,84.85
2018-02-09T10:12:15.530Z,85.65
2018-02-09T10:14:43.879Z,78.57
2018-02-09T10:17:12.194Z,80.47
2018-02-09T10:19:40.537Z,79.40
2018-02-09T10:22:08.894Z,73.90
2018-02-09T10:24:37.996Z,77.93
2018-02-09T10:27:07.123Z,77.20
2018-02-09T10:29:35.472Z,81.22
2018-02-09T10:32:04.581Z,74.75
2018-02-09T10:34:33.683Z,80.35
2018-02-09T10:37:02.018Z,72.53
2018-02-09T10:39:30.342Z,95.10
2018-02-09T10:41:59.445Z,86.82
2018-02-09T10:44:30.022Z,79.72
2018-02-09T10:46:58.353Z,74.20
2018-02-09T10:49:27.463Z,82.97
2018-02-09T10:51:55.792Z,71.82
2018-02-09T10:54:24.135Z,80.03
2018-02-09T10:56:52.974Z,75.43
2018-02-09T10:59:21.400Z,78.45
2018-02-09T11:01:50.507Z,72.75
2018-02-09T11:04:19.604Z,81.75
2018-02-09T11:06:47.959Z,84.20
2018-02-09T11:09:21.837Z,78.68
2018-02-09T11:11:50.218Z,87.18
2018-02-09T11:14:18.554Z,79.70
2018-02-09T11:16:47.657Z,68.62
2018-02-09T11:19:16.024Z,77.25
2018-02-09T11:21:45.112Z,85.68
2018-02-09T11:24:13.481Z,82.35
2018-02-09T11:26:41.802Z,78.72
2018-02-09T11:29:10.947Z,72.53
2018-02-09T11:31:39.278Z,89.55
2018-02-09T11:34:08.376Z,76.15
2018-02-09T11:36:37.512Z,89.40
2018-02-09T11:39:21.639Z,73.57
2018-02-09T11:41:49.992Z,81.25
2018-02-09T11:44:19.095Z,79.15
2018-02-09T11:46:47.537Z,73.82
2018-02-09T11:49:15.878Z,74.82
2018-02-09T11:51:44.265Z,79.15
2018-02-09T11:54:12.614Z,79.82
2018-02-09T11:56:41.742Z,79.87
2018-02-09T11:59:10.883Z,72.78
2018-02-09T12:01:39.283Z,80.20
2018-02-09T12:04:07.658Z,74.75
2018-02-09T12:06:36.001Z,80.97
2018-02-09T12:09:04.362Z,81.50
2018-02-09T12:11:32.739Z,81.25
2018-02-09T12:14:01.289Z,74.45
2018-02-09T12:16:29.962Z,81.07
2018-02-09T12:18:58.621Z,73.78
2018-02-09T12:21:27.731Z,80.45
2018-02-09T12:23:56.916Z,81.28
2018-02-09T12:26:25.348Z,79.60
2018-02-09T12:28:54.137Z,67.18
2018-02-09T12:31:22.475Z,80.07
2018-02-09T12:33:51.743Z,71.93
2018-02-09T12:36:20.748Z,90.95
2018-02-09T12:38:49.167Z,87.65
2018-02-09T12:41:18.268Z,77.22
2018-02-09T12:43:46.599Z,78.25
2018-02-09T12:46:14.917Z,81.78
2018-02-09T12:48:43.269Z,79.75
2018-02-09T12:51:11.648Z,83.35
2018-02-09T12:53:39.970Z,80.60
2018-02-09T12:56:08.282Z,78.78
2018-02-09T12:58:36.626Z,75.68
2018-02-09T13:01:04.958Z,68.57
2018-02-09T13:03:34.100Z,78.95
2018-02-09T13:06:02.615Z,79.55
2018-02-09T13:08:31.723Z,83.97
2018-02-09T13:11:00.084Z,77.72
2018-02-09T13:13:28.456Z,69.70
2018-02-09T13:15:57.813Z,81.57
2018-02-09T13:18:37.935Z,75.50
2018-02-09T13:21:07.175Z,71.32
2018-02-09T13:23:47.325Z,83.15
2018-02-09T13:26:16.124Z,64.82
2018-02-09T13:28:57.633Z,73.75
2018-02-09T13:31:26.773Z,78.28
2018-02-09T13:33:55.129Z,74.65
2018-02-09T13:36:35.482Z,85.93
2018-02-09T13:39:04.622Z,78.25
2018-02-09T13:41:34.044Z,71.20
2018-02-09T13:44:03.844Z,83.15
2018-02-09T13:46:33.499Z,82.60
2018-02-09T13:49:01.792Z,91.55
2018-02-09T13:51:30.116Z,80.45
2018-02-09T13:53:58.545Z,87.05
2018-02-09T13:56:26.916Z,82.95
2018-02-09T13:58:55.261Z,81.72
2018-02-09T14:01:24.357Z,71.68
2018-02-09T14:03:54.802Z,77.30
2018-02-09T14:06:24.924Z,66.80
2018-02-09T14:08:53.324Z,116.72
2018-02-09T14:11:21.639Z,80.43
2018-02-09T14:13:49.957Z,85.28
2018-02-09T14:16:19.062Z,84.85
2018-02-09T14:18:48.159Z,70.93
2018-02-09T14:21:17.247Z,82.55
2018-02-09T14:23:46.362Z,76.12
2018-02-09T14:26:14.768Z,87.88
2018-02-09T14:28:43.126Z,73.72
2018-02-09T14:31:12.222Z,66.90
2018-02-09T14:33:41.305Z,80.60
2018-02-09T14:36:09.703Z,83.07
2018-02-09T14:38:38.807Z,88.93
2018-02-09T14:41:07.918Z,77.12
2018-02-09T14:43:36.498Z,77.07
2018-02-09T14:46:05.631Z,86.60
2018-02-09T14:48:33.949Z,79.60
2018-02-09T14:51:02.301Z,74.50
2018-02-09T14:53:30.619Z,84.00
2018-02-09T14:55:58.961Z,72.28
2018-02-09T14:58:27.314Z,81.85
2018-02-09T15:00:55.663Z,83.53
2018-02-09T15:03:24.031Z,83.15
2018-02-09T15:05:53.759Z,89.75
2018-02-09T15:08:23.028Z,92.40
2018-02-09T15:10:51.374Z,95.15
2018-02-09T15:13:20.500Z,112.22
2018-02-09T15:15:48.860Z,103.47
2018-02-09T15:18:17.259Z,101.40
2018-02-09T15:20:45.654Z,98.30
2018-02-09T15:23:14.032Z,79.45
2018-02-09T15:25:42.442Z,81.00
2018-02-09T15:28:10.911Z,89.40
2018-02-09T15:30:39.348Z,86.28
2018-02-09T15:33:09.084Z,83.18
2018-02-09T15:35:39.317Z,85.22
2018-02-09T15:38:07.742Z,85.78
2018-02-09T15:40:36.167Z,81.12
2018-02-09T15:43:05.462Z,70.18
2018-02-09T15:45:35.310Z,79.20
2018-02-09T15:48:03.717Z,81.55
2018-02-09T15:50:32.069Z,73.47
2018-02-09T15:53:00.467Z,82.35
2018-02-09T15:55:28.910Z,84.22
2018-02-09T15:57:58.053Z,86.57
2018-02-09T16:00:26.433Z,82.65
2018-02-09T16:02:54.781Z,82.72
2018-02-09T16:05:23.137Z,77.90
2018-02-09T16:07:51.576Z,83.32
2018-02-09T16:10:20.743Z,71.78
2018-02-09T16:12:49.837Z,81.35
2018-02-09T16:15:18.956Z,92.07
2018-02-09T16:17:47.349Z,86.87
2018-02-09T16:20:16.461Z,81.35
2018-02-09T16:22:44.803Z,86.22
2018-02-09T16:25:14.230Z,86.80
2018-02-09T16:27:42.561Z,72.78
2018-02-09T16:30:10.897Z,77.22
2018-02-09T16:32:39.995Z,89.35
2018-02-09T16:35:09.070Z,86.15
2018-02-09T16:37:37.412Z,80.65
2018-02-09T16:40:06.345Z,81.85
2018-02-09T16:42:34.760Z,79.03
2018-02-09T16:45:03.893Z,82.12
2018-02-09T16:47:32.204Z,92.22
2018-02-09T16:50:00.625Z,87.00
2018-02-09T16:52:28.985Z,94.57
2018-02-09T16:54:57.345Z,84.10
2018-02-09T16:57:25.708Z,94.43
2018-02-09T16:59:54.033Z,80.32
2018-02-09T17:02:22.381Z,92.00
2018-02-09T17:04:50.744Z,100.47
2018-02-09T17:07:19.078Z,84.00
2018-02-09T17:09:47.405Z,84.65
2018-02-09T17:12:15.726Z,93.85
2018-02-09T17:14:44.981Z,91.50
2018-02-09T17:17:13.388Z,86.72
2018-02-09T17:19:41.716Z,88.82
2018-02-09T17:22:10.103Z,81.03
2018-02-09T17:24:39.201Z,88.95
2018-02-09T17:27:08.434Z,87.15
2018-02-09T17:29:37.538Z,80.00
2018-02-09T17:32:05.856Z,75.00
2018-02-09T17:34:34.213Z,87.03
2018-02-09T17:37:02.571Z,87.43
2018-02-09T17:39:31.717Z,89.55
2018-02-09T17:42:00.029Z,77.10
2018-02-09T17:44:28.405Z,71.47
2018-02-09T17:46:57.533Z,84.18
2018-02-09T17:49:26.633Z,94.32
2018-02-09T17:51:55.773Z,88.60
2018-02-09T17:54:24.306Z,86.25
2018-02-09T17:56:52.746Z,88.82
2018-02-09T17:59:21.117Z,93.80
2018-02-09T18:01:49.473Z,86.65
2018-02-09T18:04:18.591Z,101.05
2018-02-09T18:06:46.996Z,85.82
2018-02-09T18:09:16.092Z,87.43
2018-02-09T18:11:44.454Z,86.70
2018-02-09T18:14:12.822Z,84.57
2018-02-09T18:16:41.877Z,84.55
2018-02-09T18:19:11.045Z,100.82
2018-02-09T18:21:39.363Z,88.22
2018-02-09T18:24:08.592Z,96.97
2018-02-09T18:26:37.015Z,83.45
2018-02-09T18:29:05.344Z,80.07
2018-02-09T18:31:33.677Z,89.03
2018-02-09T18:34:02.069Z,82.50
2018-02-09T18:36:30.541Z,79.97
2018-02-09T18:38:58.934Z,78.43
2018-02-09T18:41:28.319Z,84.55
2018-02-09T18:43:57.436Z,92.97
2018-02-09T18:46:25.840Z,91.05
2018-02-09T18:48:54.267Z,91.22
2018-02-09T18:51:23.366Z,91.20
2018-02-09T18:53:51.970Z,95.95
2018-02-09T18:56:20.391Z,83.55
2018-02-09T18:58:48.757Z,80.15
2018-02-09T19:01:17.827Z,89.20
2018-02-09T19:03:46.938Z,89.75
2018-02-09T19:06:17.080Z,98.10
2018-02-09T19:08:45.456Z,88.60
2018-02-09T19:11:14.779Z,98.05
2018-02-09T19:13:43.117Z,100.60
2018-02-09T19:16:11.475Z,85.70
2018-02-09T19:18:39.809Z,83.25
2018-02-09T19:21:08.184Z,85.03
2018-02-09T19:23:37.256Z,99.13
2018-02-09T19:26:05.573Z,98.40
2018-02-09T19:28:34.661Z,96.30
2018-02-09T19:31:03.731Z,88.43
2018-02-09T19:33:32.080Z,86.18
2018-02-09T19:36:00.447Z,92.45
2018-02-09T19:38:28.831Z,108.80
2018-02-09T19:40:57.153Z,109.43
2018-02-09T19:43:25.502Z,89.15
2018-02-09T19:45:53.830Z,98.47
2018-02-09T19:48:22.202Z,89.20
2018-02-09T19:50:50.518Z,76.80
2018-02-09T19:53:18.904Z,89.62
2018-02-09T19:55:48.015Z,94.50
2018-02-09T19:58:16.485Z,91.25
2018-02-09T20:00:44.873Z,84.30
2018-02-09T20:03:13.426Z,79.90
2018-02-09T20:05:42.164Z,90.60
2018-02-09T20:08:11.345Z,90.60
2018-02-09T20:10:40.488Z,83.03
2018-02-09T20:13:08.919Z,77.18
2018-02-09T20:15:37.293Z,87.85
2018-02-09T20:18:05.764Z,77.15
2018-02-09T20:20:34.615Z,84.50
2018-02-09T20:23:03.898Z,88.68
2018-02-09T20:25:32.585Z,89.50
2018-02-09T20:28:00.943Z,91.55
2018-02-09T20:30:29.260Z,80.30
2018-02-09T20:32:58.382Z,90.78
2018-02-09T20:35:26.675Z,79.85
2018-02-09T20:37:54.983Z,83.55
2018-02-09T20:40:23.305Z,81.00
2018-02-09T20:42:52.405Z,84.00
2018-02-09T20:45:21.557Z,83.78
2018-02-09T20:47:49.896Z,85.20
2018-02-09T20:50:18.300Z,88.00
2018-02-09T20:52:46.641Z,86.12
2018-02-09T20:55:14.999Z,87.07
2018-02-09T20:57:43.312Z,76.62
2018-02-09T21:00:11.686Z,79.37
2018-02-09T21:02:40.017Z,79.95
2018-02-09T21:05:08.408Z,86.30
2018-02-09T21:07:37.604Z,92.82
2018-02-09T21:10:05.986Z,87.50
2018-02-09T21:12:34.365Z,78.07
2018-02-09T21:15:02.727Z,89.35
2018-02-09T21:17:31.049Z,65.75
2018-02-09T21:19:59.994Z,78.43
2018-02-09T21:22:28.551Z,71.75
2018-02-09T21:24:56.920Z,77.78
2018-02-09T21:27:25.244Z,91.43
2018-02-09T21:29:54.360Z,82.07
2018-02-09T21:32:23.459Z,80.93
2018-02-09T21:34:52.557Z,87.57
2018-02-09T21:37:21.911Z,85.25
2018-02-09T21:39:52.875Z,73.82
2018-02-09T21:42:21.237Z,70.90
2018-02-09T21:44:50.157Z,75.20
2018-02-09T21:47:18.548Z,84.40
2018-02-09T21:49:47.679Z,76.07
2018-02-09T21:52:16.000Z,79.37
2018-02-09T21:54:44.591Z,89.45
2018-02-09T21:57:18.969Z,66.75
2018-02-09T21:59:47.288Z,73.97
2018-02-09T22:02:15.622Z,75.87
2018-02-09T22:04:43.975Z,72.82
2018-02-09T22:07:12.284Z,70.18
2018-02-09T22:09:41.354Z,69.57
2018-02-09T22:12:11.274Z,74.82
2018-02-09T22:14:39.603Z,73.53
2018-02-09T22:17:07.924Z,70.43
2018-02-09T22:19:36.789Z,66.25
2018-02-09T22:22:05.136Z,73.97
2018-02-09T22:24:33.492Z,75.87
2018-02-09T22:27:01.911Z,73.32
2018-02-09T22:29:31.043Z,65.30
2018-02-09T22:31:59.376Z,72.47
2018-02-09T22:34:28.474Z,73.00
2018-02-09T22:36:57.582Z,75.05
2018-02-09T22:39:26.842Z,75.25
2018-02-09T22:41:55.222Z,74.25
2018-02-09T22:44:24.038Z,66.32
2018-02-09T22:46:53.160Z,74.28
2018-02-09T22:49:22.596Z,86.75
2018-02-09T22:51:51.151Z,78.95
2018-02-09T22:54:20.381Z,85.35
2018-02-09T22:56:50.696Z,87.03
2018-02-09T22:59:19.256Z,90.82
2018-02-09T23:01:47.858Z,102.25
2018-02-09T23:04:16.351Z,113.37
2018-02-09T23:06:45.453Z,121.47
2018-02-09T23:09:14.578Z,136.48
2018-02-09T23:11:42.967Z,143.77
2018-02-09T23:14:11.283Z,145.50
2018-02-09T23:16:39.622Z,134.45
2018-02-09T23:19:07.932Z,120.32
2018-02-09T23:21:36.294Z,122.40
2018-02-09T23:24:04.637Z,130.63
2018-02-09T23:26:33.747Z,163.95
2018-02-09T23:29:02.843Z,190.07
2018-02-09T23:31:31.230Z,193.90
2018-02-09T23:34:00.325Z,167.27
2018-02-09T23:36:28.669Z,144.65
2018-02-09T23:38:56.995Z,164.82
2018-02-09T23:41:25.345Z,207.10
2018-02-09T23:43:53.660Z,211.45
2018-02-09T23:46:22.795Z,197.62
2018-02-09T23:48:51.177Z,219.40
2018-02-09T23:51:19.549Z,218.70
2018-02-09T23:53:47.879Z,177.07
2018-02-09T23:56:16.373Z,174.62
2018-02-09T23:58:46.489Z,157.20
